sensor_id;sensor_type;location;lat;lon;timestamp;pressure;altitude;pressure_sealevel;temperature;humidity
62725;BME280;49026;52.600;4.694;2023-09-08T00:00:57;101705.28;;;18.48;68.50
62725;BME280;49026;52.600;4.694;2023-09-08T00:03:22;101710.50;;;18.50;74.59
62725;BME280;49026;52.600;4.694;2023-09-08T00:05:48;101707.09;;;18.48;73.53
62725;BME280;49026;52.600;4.694;2023-09-08T00:08:13;101695.47;;;18.49;79.03
62725;BME280;49026;52.600;4.694;2023-09-08T00:10:42;101686.72;;;18.47;76.01
62725;BME280;49026;52.600;4.694;2023-09-08T00:13:07;101699.38;;;18.43;75.57
62725;BME280;49026;52.600;4.694;2023-09-08T00:15:36;101698.53;;;18.43;76.71
62725;BME280;49026;52.600;4.694;2023-09-08T00:18:01;101703.13;;;18.39;70.77
62725;BME280;49026;52.600;4.694;2023-09-08T00:20:27;101704.09;;;18.38;72.12
62725;BME280;49026;52.600;4.694;2023-09-08T00:22:52;101702.28;;;18.39;72.45
62725;BME280;49026;52.600;4.694;2023-09-08T00:25:17;101707.88;;;18.34;71.40
62725;BME280;49026;52.600;4.694;2023-09-08T00:27:43;101708.09;;;18.31;71.66
62725;BME280;49026;52.600;4.694;2023-09-08T00:30:08;101705.69;;;18.26;69.99
62725;BME280;49026;52.600;4.694;2023-09-08T00:32:34;101704.16;;;18.22;67.54
62725;BME280;49026;52.600;4.694;2023-09-08T00:35:01;101706.13;;;18.19;65.92
62725;BME280;49026;52.600;4.694;2023-09-08T00:37:26;101707.28;;;18.14;66.79
62725;BME280;49026;52.600;4.694;2023-09-08T00:39:52;101710.94;;;18.12;67.56
62725;BME280;49026;52.600;4.694;2023-09-08T00:42:22;101705.72;;;18.10;65.80
62725;BME280;49026;52.600;4.694;2023-09-08T00:44:47;101706.69;;;18.09;71.10
62725;BME280;49026;52.600;4.694;2023-09-08T00:47:13;101704.97;;;18.08;67.59
62725;BME280;49026;52.600;4.694;2023-09-08T00:49:38;101710.38;;;18.07;67.49
62725;BME280;49026;52.600;4.694;2023-09-08T00:52:04;101708.75;;;18.04;66.59
62725;BME280;49026;52.600;4.694;2023-09-08T00:54:29;101708.94;;;18.01;66.70
62725;BME280;49026;52.600;4.694;2023-09-08T00:56:57;101706.28;;;18.01;69.32
62725;BME280;49026;52.600;4.694;2023-09-08T00:59:23;101698.38;;;18.00;67.42
62725;BME280;49026;52.600;4.694;2023-09-08T01:01:54;101700.94;;;18.01;67.98
62725;BME280;49026;52.600;4.694;2023-09-08T01:04:21;101701.88;;;18.00;69.38
62725;BME280;49026;52.600;4.694;2023-09-08T01:06:47;101704.53;;;18.00;69.47
62725;BME280;49026;52.600;4.694;2023-09-08T01:09:12;101705.47;;;17.99;70.84
62725;BME280;49026;52.600;4.694;2023-09-08T01:11:41;101706.44;;;17.98;69.65
62725;BME280;49026;52.600;4.694;2023-09-08T01:14:07;101701.22;;;17.96;71.05
62725;BME280;49026;52.600;4.694;2023-09-08T01:16:33;101705.75;;;17.94;69.42
62725;BME280;49026;52.600;4.694;2023-09-08T01:18:58;101703.53;;;17.87;66.75
62725;BME280;49026;52.600;4.694;2023-09-08T01:24:17;101700.44;;;17.78;68.54
62725;BME280;49026;52.600;4.694;2023-09-08T01:26:48;101693.84;;;17.70;67.30
62725;BME280;49026;52.600;4.694;2023-09-08T01:29:14;101691.69;;;17.60;66.64
62725;BME280;49026;52.600;4.694;2023-09-08T01:31:41;101694.88;;;17.51;66.98
62725;BME280;49026;52.600;4.694;2023-09-08T01:34:10;101698.53;;;17.49;69.11
62725;BME280;49026;52.600;4.694;2023-09-08T01:36:35;101693.81;;;17.54;67.61
62725;BME280;49026;52.600;4.694;2023-09-08T01:39:01;101700.03;;;17.54;68.45
62725;BME280;49026;52.600;4.694;2023-09-08T01:41:27;101699.06;;;17.55;68.10
62725;BME280;49026;52.600;4.694;2023-09-08T01:43:52;101696.47;;;17.54;66.34
62725;BME280;49026;52.600;4.694;2023-09-08T01:46:20;101696.69;;;17.51;68.08
62725;BME280;49026;52.600;4.694;2023-09-08T01:48:48;101704.66;;;17.51;70.09
62725;BME280;49026;52.600;4.694;2023-09-08T01:51:13;101697.63;;;17.50;68.64
62725;BME280;49026;52.600;4.694;2023-09-08T01:53:38;101699.59;;;17.46;70.15
62725;BME280;49026;52.600;4.694;2023-09-08T01:56:03;101692.72;;;17.42;70.37
62725;BME280;49026;52.600;4.694;2023-09-08T01:58:29;101690.34;;;17.37;67.62
62725;BME280;49026;52.600;4.694;2023-09-08T02:00:56;101689.63;;;17.34;67.62
62725;BME280;49026;52.600;4.694;2023-09-08T02:03:27;101686.03;;;17.35;71.20
62725;BME280;49026;52.600;4.694;2023-09-08T02:05:52;101687.69;;;17.37;72.05
62725;BME280;49026;52.600;4.694;2023-09-08T02:08:18;101682.25;;;17.39;71.82
62725;BME280;49026;52.600;4.694;2023-09-08T02:10:44;101688.28;;;17.43;73.49
62725;BME280;49026;52.600;4.694;2023-09-08T02:13:09;101682.75;;;17.46;77.43
62725;BME280;49026;52.600;4.694;2023-09-08T02:15:37;101681.16;;;17.43;76.12
62725;BME280;49026;52.600;4.694;2023-09-08T02:18:02;101682.38;;;17.37;75.02
62725;BME280;49026;52.600;4.694;2023-09-08T02:20:28;101684.50;;;17.31;73.16
62725;BME280;49026;52.600;4.694;2023-09-08T02:22:54;101678.47;;;17.27;71.45
62725;BME280;49026;52.600;4.694;2023-09-08T02:25:20;101683.78;;;17.27;71.72
62725;BME280;49026;52.600;4.694;2023-09-08T02:27:45;101677.78;;;17.23;70.92
62725;BME280;49026;52.600;4.694;2023-09-08T02:30:11;101679.59;;;17.23;70.66
62725;BME280;49026;52.600;4.694;2023-09-08T02:32:36;101674.38;;;17.21;72.81
62725;BME280;49026;52.600;4.694;2023-09-08T02:35:01;101672.66;;;17.20;72.05
62725;BME280;49026;52.600;4.694;2023-09-08T02:37:27;101674.44;;;17.20;68.82
62725;BME280;49026;52.600;4.694;2023-09-08T02:40:12;101678.84;;;17.21;67.77
62725;BME280;49026;52.600;4.694;2023-09-08T02:42:38;101676.00;;;17.24;69.57
62725;BME280;49026;52.600;4.694;2023-09-08T02:45:03;101677.72;;;17.25;68.26
62725;BME280;49026;52.600;4.694;2023-09-08T02:47:28;101680.44;;;17.23;69.50
62725;BME280;49026;52.600;4.694;2023-09-08T02:49:54;101682.41;;;17.20;71.54
62725;BME280;49026;52.600;4.694;2023-09-08T02:52:19;101673.84;;;17.15;70.71
62725;BME280;49026;52.600;4.694;2023-09-08T02:54:45;101676.66;;;17.12;70.16
62725;BME280;49026;52.600;4.694;2023-09-08T02:57:10;101674.16;;;17.09;68.92
62725;BME280;49026;52.600;4.694;2023-09-08T02:59:37;101676.06;;;17.07;71.92
62725;BME280;49026;52.600;4.694;2023-09-08T03:02:03;101677.94;;;17.04;70.88
62725;BME280;49026;52.600;4.694;2023-09-08T03:04:28;101671.88;;;17.02;69.33
62725;BME280;49026;52.600;4.694;2023-09-08T03:06:53;101671.16;;;16.99;70.47
62725;BME280;49026;52.600;4.694;2023-09-08T03:09:19;101670.38;;;16.97;71.70
62725;BME280;49026;52.600;4.694;2023-09-08T03:11:44;101671.25;;;16.97;77.60
62725;BME280;49026;52.600;4.694;2023-09-08T03:14:17;101665.84;;;16.99;77.61
62725;BME280;49026;52.600;4.694;2023-09-08T03:16:42;101667.56;;;17.00;79.82
62725;BME280;49026;52.600;4.694;2023-09-08T03:19:07;101659.69;;;16.98;77.81
62725;BME280;49026;52.600;4.694;2023-09-08T03:21:32;101665.97;;;16.97;72.63
62725;BME280;49026;52.600;4.694;2023-09-08T03:24:00;101662.41;;;16.97;70.34
62725;BME280;49026;52.600;4.694;2023-09-08T03:26:27;101659.09;;;16.93;72.23
62725;BME280;49026;52.600;4.694;2023-09-08T03:28:53;101658.47;;;16.88;74.78
62725;BME280;49026;52.600;4.694;2023-09-08T03:31:18;101655.19;;;16.83;74.30
62725;BME280;49026;52.600;4.694;2023-09-08T03:33:43;101643.09;;;16.77;77.09
62725;BME280;49026;52.600;4.694;2023-09-08T03:36:08;101649.56;;;16.72;76.44
62725;BME280;49026;52.600;4.694;2023-09-08T03:38:34;101648.88;;;16.68;71.75
62725;BME280;49026;52.600;4.694;2023-09-08T03:41:02;101648.19;;;16.64;71.51
62725;BME280;49026;52.600;4.694;2023-09-08T03:43:27;101647.66;;;16.58;69.89
62725;BME280;49026;52.600;4.694;2023-09-08T03:45:52;101651.47;;;16.52;72.97
62725;BME280;49026;52.600;4.694;2023-09-08T03:48:18;101646.28;;;16.51;72.78
62725;BME280;49026;52.600;4.694;2023-09-08T03:50:43;101650.69;;;16.50;70.31
62725;BME280;49026;52.600;4.694;2023-09-08T03:53:11;101642.81;;;16.48;74.83
62725;BME280;49026;52.600;4.694;2023-09-08T03:55:36;101643.84;;;16.46;72.98
62725;BME280;49026;52.600;4.694;2023-09-08T03:58:01;101639.47;;;16.45;72.85
62725;BME280;49026;52.600;4.694;2023-09-08T04:00:27;101644.94;;;16.42;73.74
62725;BME280;49026;52.600;4.694;2023-09-08T04:02:57;101652.03;;;16.41;74.01
62725;BME280;49026;52.600;4.694;2023-09-08T04:05:22;101642.44;;;16.39;72.09
62725;BME280;49026;52.600;4.694;2023-09-08T04:07:48;101649.63;;;16.37;73.71
62725;BME280;49026;52.600;4.694;2023-09-08T04:10:13;101653.22;;;16.36;72.62
62725;BME280;49026;52.600;4.694;2023-09-08T04:12:41;101650.59;;;16.36;75.00
62725;BME280;49026;52.600;4.694;2023-09-08T04:15:11;101639.16;;;16.34;73.28
62725;BME280;49026;52.600;4.694;2023-09-08T04:17:37;101646.34;;;16.32;71.93
62725;BME280;49026;52.600;4.694;2023-09-08T04:20:06;101648.25;;;16.29;72.18
62725;BME280;49026;52.600;4.694;2023-09-08T04:22:32;101648.25;;;16.29;72.96
62725;BME280;49026;52.600;4.694;2023-09-08T04:24:57;101648.31;;;16.28;73.23
62725;BME280;49026;52.600;4.694;2023-09-08T04:27:23;101636.94;;;16.26;70.86
62725;BME280;49026;52.600;4.694;2023-09-08T04:29:49;101652.22;;;16.21;70.64
62725;BME280;49026;52.600;4.694;2023-09-08T04:32:14;101643.47;;;16.19;75.08
62725;BME280;49026;52.600;4.694;2023-09-08T04:34:45;101644.50;;;16.16;76.75
62725;BME280;49026;52.600;4.694;2023-09-08T04:37:10;101646.44;;;16.13;75.50
62725;BME280;49026;52.600;4.694;2023-09-08T04:39:44;101649.31;;;16.08;73.11
62725;BME280;49026;52.600;4.694;2023-09-08T04:42:11;101652.19;;;16.03;71.86
62725;BME280;49026;52.600;4.694;2023-09-08T04:44:38;101653.22;;;16.01;70.28
62725;BME280;49026;52.600;4.694;2023-09-08T04:47:04;101649.94;;;15.96;71.26
62725;BME280;49026;52.600;4.694;2023-09-08T04:49:30;101643.91;;;15.92;69.71
62725;BME280;49026;52.600;4.694;2023-09-08T04:51:55;101653.81;;;15.88;69.84
62725;BME280;49026;52.600;4.694;2023-09-08T04:54:23;101647.81;;;15.85;68.89
62725;BME280;49026;52.600;4.694;2023-09-08T04:56:51;101652.28;;;15.84;69.23
62725;BME280;49026;52.600;4.694;2023-09-08T04:59:17;101644.47;;;15.81;70.18
62725;BME280;49026;52.600;4.694;2023-09-08T05:01:42;101646.41;;;15.78;71.09
62725;BME280;49026;52.600;4.694;2023-09-08T05:04:09;101647.38;;;15.75;70.34
62725;BME280;49026;52.600;4.694;2023-09-08T05:06:34;101645.69;;;15.74;71.21
62725;BME280;49026;52.600;4.694;2023-09-08T05:08:59;101650.97;;;15.74;69.98
62725;BME280;49026;52.600;4.694;2023-09-08T05:11:25;101655.31;;;15.75;69.21
62725;BME280;49026;52.600;4.694;2023-09-08T05:13:51;101647.38;;;15.75;69.49
62725;BME280;49026;52.600;4.694;2023-09-08T05:16:16;101642.16;;;15.73;69.00
62725;BME280;49026;52.600;4.694;2023-09-08T05:18:43;101644.03;;;15.71;68.65
62725;BME280;49026;52.600;4.694;2023-09-08T05:21:10;101651.97;;;15.71;68.72
62725;BME280;49026;52.600;4.694;2023-09-08T05:23:35;101650.19;;;15.72;70.75
62725;BME280;49026;52.600;4.694;2023-09-08T05:26:00;101650.00;;;15.77;71.17
62725;BME280;49026;52.600;4.694;2023-09-08T05:28:26;101652.50;;;15.80;71.20
62725;BME280;49026;52.600;4.694;2023-09-08T05:30:52;101650.53;;;15.83;69.74
62725;BME280;49026;52.600;4.694;2023-09-08T05:33:17;101651.25;;;15.87;70.14
62725;BME280;49026;52.600;4.694;2023-09-08T05:35:44;101655.41;;;15.92;71.84
62725;BME280;49026;52.600;4.694;2023-09-08T05:38:09;101660.56;;;15.96;73.82
62725;BME280;49026;52.600;4.694;2023-09-08T05:40:37;101658.53;;;16.01;76.42
62725;BME280;49026;52.600;4.694;2023-09-08T05:43:03;101660.00;;;16.06;74.70
62725;BME280;49026;52.600;4.694;2023-09-08T05:45:36;101657.06;;;16.13;71.65
62725;BME280;49026;52.600;4.694;2023-09-08T05:48:02;101665.56;;;16.19;71.35
62725;BME280;49026;52.600;4.694;2023-09-08T05:50:27;101659.91;;;16.25;71.52
62725;BME280;49026;52.600;4.694;2023-09-08T05:52:53;101666.66;;;16.33;71.70
62725;BME280;49026;52.600;4.694;2023-09-08T05:55:18;101667.28;;;16.38;71.80
62725;BME280;49026;52.600;4.694;2023-09-08T05:57:44;101665.09;;;16.46;74.54
62725;BME280;49026;52.600;4.694;2023-09-08T06:00:09;101677.06;;;16.53;76.00
62725;BME280;49026;52.600;4.694;2023-09-08T06:02:35;101679.25;;;16.62;72.10
62725;BME280;49026;52.600;4.694;2023-09-08T06:05:00;101676.88;;;16.74;79.68
62725;BME280;49026;52.600;4.694;2023-09-08T06:07:25;101680.63;;;16.87;76.74
62725;BME280;49026;52.600;4.694;2023-09-08T06:09:55;101674.44;;;17.04;76.31
62725;BME280;49026;52.600;4.694;2023-09-08T06:12:21;101683.09;;;17.23;78.93
62725;BME280;49026;52.600;4.694;2023-09-08T06:14:46;101685.63;;;17.43;82.15
62725;BME280;49026;52.600;4.694;2023-09-08T06:17:12;101683.78;;;17.59;77.32
62725;BME280;49026;52.600;4.694;2023-09-08T06:19:37;101679.91;;;17.81;75.60
62725;BME280;49026;52.600;4.694;2023-09-08T06:22:04;101687.56;;;18.03;75.83
62725;BME280;49026;52.600;4.694;2023-09-08T06:24:30;101677.44;;;18.24;76.17
62725;BME280;49026;52.600;4.694;2023-09-08T06:26:55;101685.13;;;18.44;75.57
62725;BME280;49026;52.600;4.694;2023-09-08T06:29:20;101689.91;;;18.68;74.39
62725;BME280;49026;52.600;4.694;2023-09-08T06:31:48;101691.19;;;18.91;74.57
62725;BME280;49026;52.600;4.694;2023-09-08T06:34:13;101691.56;;;19.14;73.99
62725;BME280;49026;52.600;4.694;2023-09-08T06:36:39;101697.34;;;19.35;75.15
62725;BME280;49026;52.600;4.694;2023-09-08T06:39:04;101688.06;;;19.55;74.94
62725;BME280;49026;52.600;4.694;2023-09-08T06:41:32;101678.97;;;19.72;76.17
62725;BME280;49026;52.600;4.694;2023-09-08T06:44:00;101680.66;;;19.87;75.31
62725;BME280;49026;52.600;4.694;2023-09-08T06:46:25;101683.47;;;19.98;75.82
62725;BME280;49026;52.600;4.694;2023-09-08T06:48:50;101680.41;;;20.05;74.68
62725;BME280;49026;52.600;4.694;2023-09-08T06:51:15;101686.72;;;20.16;74.57
62725;BME280;49026;52.600;4.694;2023-09-08T06:53:43;101680.34;;;20.32;73.79
62725;BME280;49026;52.600;4.694;2023-09-08T06:56:08;101687.41;;;20.46;74.14
62725;BME280;49026;52.600;4.694;2023-09-08T06:58:34;101686.56;;;20.58;73.78
62725;BME280;49026;52.600;4.694;2023-09-08T07:00:59;101682.97;;;20.72;74.14
62725;BME280;49026;52.600;4.694;2023-09-08T07:03:27;101688.19;;;20.86;73.82
62725;BME280;49026;52.600;4.694;2023-09-08T07:05:53;101695.34;;;20.99;73.72
62725;BME280;49026;52.600;4.694;2023-09-08T07:08:18;101688.06;;;21.14;73.83
62725;BME280;49026;52.600;4.694;2023-09-08T07:10:44;101684.16;;;21.31;73.93
62725;BME280;49026;52.600;4.694;2023-09-08T07:13:11;101692.28;;;21.42;74.12
62725;BME280;49026;52.600;4.694;2023-09-08T07:15:37;101693.13;;;21.55;74.24
62725;BME280;49026;52.600;4.694;2023-09-08T07:18:02;101697.56;;;21.68;74.02
62725;BME280;49026;52.600;4.694;2023-09-08T07:20:28;101702.56;;;21.72;73.99
62725;BME280;49026;52.600;4.694;2023-09-08T07:22:53;101694.06;;;21.78;74.01
62725;BME280;49026;52.600;4.694;2023-09-08T07:25:19;101695.84;;;21.91;73.78
62725;BME280;49026;52.600;4.694;2023-09-08T07:27:44;101694.31;;;21.99;73.74
62725;BME280;49026;52.600;4.694;2023-09-08T07:30:10;101689.00;;;22.11;72.56
62725;BME280;49026;52.600;4.694;2023-09-08T07:32:38;101692.56;;;22.23;73.01
62725;BME280;49026;52.600;4.694;2023-09-08T07:35:04;101694.69;;;22.30;72.32
62725;BME280;49026;52.600;4.694;2023-09-08T07:37:32;101693.13;;;22.39;72.82
62725;BME280;49026;52.600;4.694;2023-09-08T07:39:57;101699.13;;;22.54;73.08
62725;BME280;49026;52.600;4.694;2023-09-08T07:42:23;101695.25;;;22.69;73.05
62725;BME280;49026;52.600;4.694;2023-09-08T07:44:50;101690.75;;;22.81;72.12
62725;BME280;49026;52.600;4.694;2023-09-08T07:47:15;101693.09;;;22.97;72.31
62725;BME280;49026;52.600;4.694;2023-09-08T07:49:45;101698.34;;;23.10;71.29
62725;BME280;49026;52.600;4.694;2023-09-08T07:52:14;101696.63;;;23.20;70.68
62725;BME280;49026;52.600;4.694;2023-09-08T07:54:39;101693.22;;;23.29;69.79
62725;BME280;49026;52.600;4.694;2023-09-08T07:57:04;101698.31;;;23.44;70.54
62725;BME280;49026;52.600;4.694;2023-09-08T07:59:32;101708.16;;;23.66;71.66
62725;BME280;49026;52.600;4.694;2023-09-08T08:01:57;101710.16;;;23.96;71.81
62725;BME280;49026;52.600;4.694;2023-09-08T08:04:22;101705.66;;;24.18;71.62
62725;BME280;49026;52.600;4.694;2023-09-08T08:06:48;101709.22;;;24.39;69.45
62725;BME280;49026;52.600;4.694;2023-09-08T08:09:14;101692.00;;;24.63;71.55
62725;BME280;49026;52.600;4.694;2023-09-08T08:11:42;101695.63;;;24.83;70.18
62725;BME280;49026;52.600;4.694;2023-09-08T08:14:08;101687.22;;;25.07;68.60
62725;BME280;49026;52.600;4.694;2023-09-08T08:16:33;101687.56;;;25.24;69.13
62725;BME280;49026;52.600;4.694;2023-09-08T08:19:00;101690.22;;;25.45;69.74
62725;BME280;49026;52.600;4.694;2023-09-08T08:21:28;101698.03;;;25.67;70.72
62725;BME280;49026;52.600;4.694;2023-09-08T08:23:55;101697.50;;;25.93;70.83
62725;BME280;49026;52.600;4.694;2023-09-08T08:26:20;101695.69;;;26.13;70.58
62725;BME280;49026;52.600;4.694;2023-09-08T08:28:52;101696.50;;;26.43;70.74
62725;BME280;49026;52.600;4.694;2023-09-08T08:31:17;101699.84;;;26.65;70.76
62725;BME280;49026;52.600;4.694;2023-09-08T08:33:46;101701.22;;;26.88;70.65
62725;BME280;49026;52.600;4.694;2023-09-08T08:36:11;101690.03;;;27.11;69.98
62725;BME280;49026;52.600;4.694;2023-09-08T08:38:39;101690.53;;;27.24;67.92
62725;BME280;49026;52.600;4.694;2023-09-08T08:41:04;101694.16;;;27.43;69.69
62725;BME280;49026;52.600;4.694;2023-09-08T08:43:31;101698.69;;;27.70;69.93
62725;BME280;49026;52.600;4.694;2023-09-08T08:45:58;101697.16;;;28.03;69.50
62725;BME280;49026;52.600;4.694;2023-09-08T08:48:25;101703.81;;;28.35;69.51
62725;BME280;49026;52.600;4.694;2023-09-08T08:50:53;101710.28;;;28.60;68.46
62725;BME280;49026;52.600;4.694;2023-09-08T08:53:20;101703.75;;;28.71;66.52
62725;BME280;49026;52.600;4.694;2023-09-08T08:55:46;101710.41;;;28.85;68.03
62725;BME280;49026;52.600;4.694;2023-09-08T08:58:12;101700.50;;;28.94;65.84
62725;BME280;49026;52.600;4.694;2023-09-08T09:00:39;101713.72;;;29.05;66.82
62725;BME280;49026;52.600;4.694;2023-09-08T09:03:05;101707.63;;;29.03;63.91
62725;BME280;49026;52.600;4.694;2023-09-08T09:05:36;101713.75;;;29.13;64.19
62725;BME280;49026;52.600;4.694;2023-09-08T09:08:02;101715.56;;;29.31;64.66
62725;BME280;49026;52.600;4.694;2023-09-08T09:10:31;101713.22;;;29.44;65.63
62725;BME280;49026;52.600;4.694;2023-09-08T09:12:56;101713.59;;;29.58;65.23
62725;BME280;49026;52.600;4.694;2023-09-08T09:15:31;101712.13;;;29.80;65.10
62725;BME280;49026;52.600;4.694;2023-09-08T09:18:05;101712.81;;;29.90;65.53
62725;BME280;49026;52.600;4.694;2023-09-08T09:20:30;101718.59;;;30.20;65.73
62725;BME280;49026;52.600;4.694;2023-09-08T09:22:56;101707.59;;;30.29;65.61
62725;BME280;49026;52.600;4.694;2023-09-08T09:25:26;101708.25;;;30.32;63.09
62725;BME280;49026;52.600;4.694;2023-09-08T09:27:57;101710.66;;;30.43;63.06
62725;BME280;49026;52.600;4.694;2023-09-08T09:30:23;101709.94;;;30.57;62.35
62725;BME280;49026;52.600;4.694;2023-09-08T09:33:06;101712.25;;;30.85;50.86
62725;BME280;49026;52.600;4.694;2023-09-08T09:35:50;101702.75;;;30.97;60.79
62725;BME280;49026;52.600;4.694;2023-09-08T09:38:17;101706.38;;;31.21;62.38
62725;BME280;49026;52.600;4.694;2023-09-08T09:40:44;101703.38;;;31.39;62.98
62725;BME280;49026;52.600;4.694;2023-09-08T09:43:10;101705.00;;;31.56;60.14
62725;BME280;49026;52.600;4.694;2023-09-08T09:45:46;101705.91;;;31.72;60.08
62725;BME280;49026;52.600;4.694;2023-09-08T09:48:12;101701.94;;;31.83;59.97
62725;BME280;49026;52.600;4.694;2023-09-08T09:50:41;101714.19;;;32.02;59.16
62725;BME280;49026;52.600;4.694;2023-09-08T09:53:19;101708.66;;;32.18;60.38
62725;BME280;49026;52.600;4.694;2023-09-08T09:55:46;101706.34;;;32.30;61.02
62725;BME280;49026;52.600;4.694;2023-09-08T09:58:13;101696.41;;;32.37;57.95
62725;BME280;49026;52.600;4.694;2023-09-08T10:00:39;101705.22;;;32.39;57.54
62725;BME280;49026;52.600;4.694;2023-09-08T10:03:08;101703.28;;;32.48;57.26
62725;BME280;49026;52.600;4.694;2023-09-08T10:05:34;101707.44;;;32.74;58.54
62725;BME280;49026;52.600;4.694;2023-09-08T10:07:59;101700.38;;;32.94;58.05
62725;BME280;49026;52.600;4.694;2023-09-08T10:10:26;101697.75;;;33.16;58.19
62725;BME280;49026;52.600;4.694;2023-09-08T10:12:57;101688.78;;;33.37;57.79
62725;BME280;49026;52.600;4.694;2023-09-08T10:15:28;101688.78;;;33.37;57.72
62725;BME280;49026;52.600;4.694;2023-09-08T10:17:56;101689.25;;;33.40;57.99
62725;BME280;49026;52.600;4.694;2023-09-08T10:20:26;101691.75;;;33.20;58.23
62725;BME280;49026;52.600;4.694;2023-09-08T10:23:06;101690.63;;;33.30;58.19
62725;BME280;49026;52.600;4.694;2023-09-08T10:25:35;101696.41;;;33.41;57.33
62725;BME280;49026;52.600;4.694;2023-09-08T10:28:02;101696.34;;;33.56;57.14
62725;BME280;49026;52.600;4.694;2023-09-08T10:30:30;101693.69;;;33.63;56.34
62725;BME280;49026;52.600;4.694;2023-09-08T10:32:56;101698.53;;;33.46;56.90
62725;BME280;49026;52.600;4.694;2023-09-08T10:35:22;101706.19;;;33.21;57.16
62725;BME280;49026;52.600;4.694;2023-09-08T10:37:48;101708.47;;;32.87;57.75
62725;BME280;49026;52.600;4.694;2023-09-08T10:40:33;101703.59;;;32.83;57.74
62725;BME280;49026;52.600;4.694;2023-09-08T10:43:09;101704.06;;;33.01;57.45
62725;BME280;49026;52.600;4.694;2023-09-08T10:45:35;101703.25;;;33.37;56.73
62725;BME280;49026;52.600;4.694;2023-09-08T10:48:01;101697.06;;;33.65;55.86
62725;BME280;49026;52.600;4.694;2023-09-08T10:50:34;101706.56;;;33.91;55.27
62725;BME280;49026;52.600;4.694;2023-09-08T10:53:09;101703.50;;;34.01;53.79
62725;BME280;49026;52.600;4.694;2023-09-08T10:55:46;101698.03;;;34.01;53.46
62725;BME280;49026;52.600;4.694;2023-09-08T10:58:32;101708.44;;;33.90;53.25
62725;BME280;49026;52.600;4.694;2023-09-08T11:00:59;101708.53;;;33.60;52.46
62725;BME280;49026;52.600;4.694;2023-09-08T11:06:05;101710.72;;;32.99;51.11
62725;BME280;49026;52.600;4.694;2023-09-08T11:08:32;101720.47;;;32.78;50.47
62725;BME280;49026;52.600;4.694;2023-09-08T11:10:58;101717.84;;;32.70;51.21
62725;BME280;49026;52.600;4.694;2023-09-08T11:13:26;101707.06;;;32.77;51.31
62725;BME280;49026;52.600;4.694;2023-09-08T11:15:55;101706.38;;;32.60;50.31
62725;BME280;49026;52.600;4.694;2023-09-08T11:18:26;101707.84;;;32.47;51.73
62725;BME280;49026;52.600;4.694;2023-09-08T11:20:52;101711.00;;;32.74;51.24
62725;BME280;49026;52.600;4.694;2023-09-08T11:23:23;101711.94;;;32.81;51.45
62725;BME280;49026;52.600;4.694;2023-09-08T11:25:49;101714.94;;;33.01;51.79
62725;BME280;49026;52.600;4.694;2023-09-08T11:28:19;101712.09;;;33.24;50.69
62725;BME280;49026;52.600;4.694;2023-09-08T11:30:55;101712.25;;;33.38;50.66
62725;BME280;49026;52.600;4.694;2023-09-08T11:33:22;101716.03;;;33.37;49.67
62725;BME280;49026;52.600;4.694;2023-09-08T11:35:54;101710.69;;;33.29;50.66
62725;BME280;49026;52.600;4.694;2023-09-08T11:38:26;101717.34;;;33.63;50.12
62725;BME280;49026;52.600;4.694;2023-09-08T11:40:55;101713.28;;;34.17;49.18
62725;BME280;49026;52.600;4.694;2023-09-08T11:43:22;101714.28;;;34.30;48.72
62725;BME280;49026;52.600;4.694;2023-09-08T11:45:47;101708.84;;;33.87;47.66
62725;BME280;49026;52.600;4.694;2023-09-08T11:48:14;101712.78;;;33.27;48.42
62725;BME280;49026;52.600;4.694;2023-09-08T11:50:43;101710.16;;;33.18;48.79
62725;BME280;49026;52.600;4.694;2023-09-08T11:53:09;101708.19;;;33.49;50.07
62725;BME280;49026;52.600;4.694;2023-09-08T11:55:37;101714.28;;;33.87;49.18
62725;BME280;49026;52.600;4.694;2023-09-08T11:58:03;101716.22;;;34.15;49.04
62725;BME280;49026;52.600;4.694;2023-09-08T12:00:29;101714.78;;;34.19;48.70
62725;BME280;49026;52.600;4.694;2023-09-08T12:02:55;101709.66;;;34.09;48.20
62725;BME280;49026;52.600;4.694;2023-09-08T12:05:28;101713.63;;;34.07;48.30
62725;BME280;49026;52.600;4.694;2023-09-08T12:07:56;101709.34;;;33.97;47.36
62725;BME280;49026;52.600;4.694;2023-09-08T12:10:24;101718.00;;;33.65;48.20
62725;BME280;49026;52.600;4.694;2023-09-08T12:12:52;101710.03;;;33.63;47.53
62725;BME280;49026;52.600;4.694;2023-09-08T12:15:36;101707.13;;;33.86;47.74
62725;BME280;49026;52.600;4.694;2023-09-08T12:18:04;101704.03;;;33.89;47.91
62725;BME280;49026;52.600;4.694;2023-09-08T12:20:30;101707.56;;;34.11;47.40
62725;BME280;49026;52.600;4.694;2023-09-08T12:22:59;101704.78;;;34.55;47.00
62725;BME280;49026;52.600;4.694;2023-09-08T12:25:26;101702.28;;;34.95;45.08
62725;BME280;49026;52.600;4.694;2023-09-08T12:27:53;101704.19;;;34.94;45.28
62725;BME280;49026;52.600;4.694;2023-09-08T12:30:23;101698.22;;;34.77;45.64
62725;BME280;49026;52.600;4.694;2023-09-08T12:32:58;101705.00;;;34.88;45.86
62725;BME280;49026;52.600;4.694;2023-09-08T12:35:24;101709.09;;;35.05;46.35
62725;BME280;49026;52.600;4.694;2023-09-08T12:37:56;101701.00;;;35.32;46.33
62725;BME280;49026;52.600;4.694;2023-09-08T12:40:22;101697.72;;;35.50;45.28
62725;BME280;49026;52.600;4.694;2023-09-08T12:42:48;101698.72;;;35.36;45.50
62725;BME280;49026;52.600;4.694;2023-09-08T12:45:13;101694.28;;;35.41;45.07
62725;BME280;49026;52.600;4.694;2023-09-08T12:47:46;101693.28;;;35.56;44.65
62725;BME280;49026;52.600;4.694;2023-09-08T12:50:11;101691.78;;;35.47;45.20
62725;BME280;49026;52.600;4.694;2023-09-08T12:52:41;101694.28;;;35.41;44.81
62725;BME280;49026;52.600;4.694;2023-09-08T12:55:09;101689.25;;;35.45;44.92